Waco Regional Airport
KACT : now visible

Airfield :











YOU CAN JOIN US ON...

 
LOGIN :

Register | Disclaimer

   EN    FR    IT 

 









Legend :    VFR   Marginal VFR   IFR   Intensive IFR   Very Intensive IFR
Visi :
Ceiling :
>= 8 km
>= 3000ft
5 to 8 km
1000 to 3000 ft
1500m to 5 km
500 to 1000 ft
800 to 1500m
200 to 500 ft
< 800m
< 200 ft
Symbols :   Thunderstorms  Fog  Heavy snow  Heavy precipitations  Wind > 20 kt






- Airport Elevation : 516 ft
- IATA code : ACT


KACT - Waco Regional

CURRENT METAR :
  • 240051Z 11004KT 8SM OVC008 14/13 A2997 RMK AO2 SLP145 T01440128

EXPIRED METARs :
  • 232351Z 09004KT 9SM OVC008 14/12 A2997 RMK AO2 SLP144 T01440122 10150 20122 56002
  • 232315Z 11005KT 7SM OVC009 14/12 A2996 RMK AO2 T01440122
  • 232251Z 12006KT 7SM OVC010 15/12 A2997 RMK AO2 SLP144 T01500122

TAF KACT
Valid from the 24 at 00:00 until the 25 at 00:00 UTC


232339Z 2400/2424 10005KT 6SM BR OVC006
FM240400 13004KT 1 1/2SM BR OVC004
FM240800 12003KT 1/2SM FG OVC002
FM241400 13006KT 2SM -DZ BR OVC004
KZFW FIR / North America



MET'MAP, your aeronautical weather chart ! - Copyright ORBIFLY December 2007 - Disclaimer

ORBIFLY MET'MAP TEAM :

Programming & Development : Alexandra Zaïnal
Concept & original design : Baudouin d'Aumeries
Assistance for programming : Marc-Olivier Méhu
Technical & hardware support : Manuel Goepfert

Contact : metmap@orbifly.com




SOURCES & CREDITS :

   NOAA       Earth
Advisory